Valier, Pennsylvania
Current Conditions -  °F | °C
As of 1:28 PM on Thursday 27 Nov 2014 (Local Time) from KDUJ Reporting Station
Overcast Overcast  
Wind Chill: 25°   Ceiling: 6000
Heat Index: 33°   Visibility: 10mi
Dew Point: 24°   Wind: 9mph
Humidity: 70%   Direction: 320°NW
Pressure: 29.98"   Gusts: NA
Location:  40.92°N, 79.04°W
Report Text: KDUJ 271828Z AUTO 32008KT 10SM FEW018 SCT029 OVC060 01/M04 A2998 RMK AO2 T00061044
Loading
Personal Weather Stations






























Interactive Weather Map New forecast layout! Learn more

10-Day Weather Forecast

Advertisements
Track Severe Weather on mobile